createdAt,value
2022-09-21T00:01:17.681Z,24.49
2022-09-21T00:03:43.951Z,24.50
2022-09-21T00:06:10.297Z,24.50
2022-09-21T00:08:36.653Z,24.49
2022-09-21T00:11:03.049Z,24.49
2022-09-21T00:13:29.394Z,24.49
2022-09-21T00:15:55.721Z,24.47
2022-09-21T00:18:23.141Z,24.49
2022-09-21T00:20:49.534Z,24.45
2022-09-21T00:23:15.893Z,24.38
2022-09-21T00:25:42.235Z,24.38
2022-09-21T00:28:08.608Z,24.45
2022-09-21T00:30:34.959Z,24.45
2022-09-21T00:33:01.309Z,24.44
2022-09-21T00:35:27.643Z,24.35
2022-09-21T00:37:53.989Z,24.43
2022-09-21T00:40:20.376Z,24.43
2022-09-21T00:42:46.691Z,24.43
2022-09-21T00:45:13.035Z,24.42
2022-09-21T00:47:39.375Z,24.42
2022-09-21T00:50:05.714Z,24.41
2022-09-21T00:52:32.113Z,24.40
2022-09-21T00:54:58.449Z,24.41
2022-09-21T00:57:24.800Z,24.40
2022-09-21T00:59:51.148Z,24.40
2022-09-21T01:02:17.519Z,24.32
2022-09-21T01:04:43.841Z,24.32
2022-09-21T01:07:10.198Z,24.40
2022-09-21T01:09:36.534Z,24.40
2022-09-21T01:12:02.887Z,24.39
2022-09-21T01:14:29.245Z,24.38
2022-09-21T01:16:55.640Z,24.38
2022-09-21T01:19:21.980Z,24.37
2022-09-21T01:21:48.377Z,24.38
2022-09-21T01:24:14.721Z,24.36
2022-09-21T01:26:41.077Z,24.37
2022-09-21T01:29:07.422Z,24.37
2022-09-21T01:31:33.804Z,24.37
2022-09-21T01:34:00.115Z,24.35
2022-09-21T01:36:26.515Z,24.37
2022-09-21T01:38:52.869Z,24.36
2022-09-21T01:41:19.206Z,24.35
2022-09-21T01:43:45.553Z,24.23
2022-09-21T01:46:11.901Z,24.35
2022-09-21T01:48:38.234Z,24.35
2022-09-21T01:51:04.588Z,24.34
2022-09-21T01:53:30.984Z,24.33
2022-09-21T01:55:57.331Z,24.32
2022-09-21T01:58:23.673Z,24.34
2022-09-21T02:00:50.075Z,24.33
2022-09-21T02:03:16.358Z,24.32
2022-09-21T02:05:42.709Z,24.32
2022-09-21T02:08:09.048Z,24.20
2022-09-21T02:10:35.402Z,24.20
2022-09-21T02:13:01.743Z,24.28
2022-09-21T02:15:28.090Z,24.27
2022-09-21T02:17:54.429Z,24.23
2022-09-21T02:20:20.784Z,24.25
2022-09-21T02:22:47.123Z,24.26
2022-09-21T02:25:13.475Z,24.23
2022-09-21T02:27:39.819Z,24.23
2022-09-21T02:30:06.169Z,24.23
2022-09-21T02:32:32.516Z,24.22
2022-09-21T02:34:58.855Z,24.21
2022-09-21T02:37:25.198Z,24.22
2022-09-21T02:39:51.535Z,24.23
2022-09-21T02:42:17.920Z,24.23
2022-09-21T02:44:44.259Z,24.22
2022-09-21T02:47:10.770Z,24.19
2022-09-21T02:49:37.122Z,24.17
2022-09-21T02:52:03.466Z,24.15
2022-09-21T02:54:30.072Z,24.16
2022-09-21T02:56:56.415Z,24.18
2022-09-21T03:02:03.130Z,24.14
2022-09-21T03:04:29.438Z,24.13
2022-09-21T03:06:55.828Z,24.12
2022-09-21T03:09:22.171Z,24.13
2022-09-21T03:11:48.506Z,24.14
2022-09-21T03:14:14.859Z,24.13
2022-09-21T03:16:41.204Z,24.09
2022-09-21T03:19:07.601Z,24.08
2022-09-21T03:21:33.928Z,24.12
2022-09-21T03:24:00.267Z,24.12
2022-09-21T03:26:26.631Z,24.07
2022-09-21T03:28:52.954Z,24.07
2022-09-21T03:31:19.366Z,24.06
2022-09-21T03:33:45.695Z,24.09
2022-09-21T03:36:12.038Z,24.08
2022-09-21T03:38:38.381Z,24.07
2022-09-21T03:41:04.742Z,24.07
2022-09-21T03:43:31.085Z,24.07
2022-09-21T03:45:57.531Z,24.07
2022-09-21T03:48:23.781Z,23.93
2022-09-21T03:50:50.164Z,23.93
2022-09-21T03:53:16.500Z,24.05
2022-09-21T03:55:42.845Z,24.05
2022-09-21T03:58:09.188Z,24.00
2022-09-21T04:00:35.533Z,24.05
2022-09-21T04:03:01.973Z,24.04
2022-09-21T04:05:28.259Z,24.03
2022-09-21T04:07:54.600Z,24.03
2022-09-21T04:10:20.942Z,24.05
2022-09-21T04:12:47.298Z,24.05
2022-09-21T04:15:13.630Z,24.05
2022-09-21T04:17:39.970Z,24.02
2022-09-21T04:20:06.314Z,24.05
2022-09-21T04:22:32.649Z,24.00
2022-09-21T04:24:58.998Z,23.97
2022-09-21T04:27:25.382Z,24.00
2022-09-21T04:29:51.773Z,24.03
2022-09-21T04:32:18.115Z,24.03
2022-09-21T04:34:44.466Z,24.00
2022-09-21T04:37:10.801Z,23.99
2022-09-21T04:39:37.145Z,24.03
2022-09-21T04:42:03.483Z,24.03
2022-09-21T04:44:29.917Z,24.10
2022-09-21T04:46:56.260Z,24.14
2022-09-21T04:49:22.603Z,24.15
2022-09-21T04:51:48.944Z,24.13
2022-09-21T04:54:15.309Z,24.18
2022-09-21T04:56:41.654Z,24.20
2022-09-21T04:59:08.040Z,24.20
2022-09-21T05:01:34.404Z,24.24
2022-09-21T05:04:00.766Z,24.30
2022-09-21T05:06:27.080Z,24.25
2022-09-21T05:08:53.430Z,24.32
2022-09-21T05:11:19.791Z,24.31
2022-09-21T05:13:46.130Z,24.34
2022-09-21T05:16:12.478Z,24.40
2022-09-21T05:18:38.824Z,24.38
2022-09-21T05:21:05.157Z,24.35
2022-09-21T05:23:31.510Z,24.35
2022-09-21T05:25:57.839Z,24.41
2022-09-21T05:28:24.184Z,24.33
2022-09-21T05:31:13.830Z,24.46
2022-09-21T05:33:16.859Z,24.46
2022-09-21T05:35:43.192Z,24.46
2022-09-21T05:38:09.539Z,24.46
2022-09-21T05:40:35.926Z,24.46
2022-09-21T05:43:02.211Z,24.48
2022-09-21T05:45:28.575Z,24.48
2022-09-21T05:47:54.914Z,24.40
2022-09-21T05:50:21.247Z,24.51
2022-09-21T05:52:47.593Z,24.47
2022-09-21T05:55:13.935Z,24.42
2022-09-21T05:57:40.282Z,24.45
2022-09-21T06:00:06.616Z,24.45
2022-09-21T06:02:33.004Z,24.56
2022-09-21T06:04:59.304Z,24.54
2022-09-21T06:07:25.653Z,24.60
2022-09-21T06:09:51.988Z,24.58
2022-09-21T06:12:18.347Z,24.58
2022-09-21T06:14:44.675Z,24.62
2022-09-21T06:17:11.018Z,24.64
2022-09-21T06:19:37.407Z,24.70
2022-09-21T06:22:06.191Z,24.70
2022-09-21T06:24:32.564Z,24.69
2022-09-21T06:26:58.929Z,24.69
2022-09-21T06:29:25.285Z,24.87
2022-09-21T06:31:51.626Z,24.87
2022-09-21T06:34:17.963Z,24.90
2022-09-21T06:36:44.381Z,24.90
2022-09-21T06:39:10.782Z,24.67
2022-09-21T06:41:37.126Z,24.81
2022-09-21T06:44:03.483Z,24.76
2022-09-21T06:46:29.825Z,24.86
2022-09-21T06:48:56.170Z,24.76
2022-09-21T06:51:22.513Z,24.74
2022-09-21T06:53:48.854Z,24.90
2022-09-21T06:56:15.190Z,24.84
2022-09-21T06:58:41.530Z,25.09
2022-09-21T07:01:07.967Z,25.09
2022-09-21T07:03:34.217Z,24.93
2022-09-21T07:06:00.556Z,24.75
2022-09-21T07:10:53.295Z,24.97
2022-09-21T07:13:19.656Z,25.11
2022-09-21T07:15:49.189Z,25.11
2022-09-21T07:18:12.330Z,25.06
2022-09-21T07:20:38.686Z,24.93
2022-09-21T07:23:05.040Z,24.95
2022-09-21T07:25:31.417Z,25.22
2022-09-21T07:27:57.765Z,25.22
2022-09-21T07:30:24.184Z,25.12
2022-09-21T07:32:50.459Z,25.08
2022-09-21T07:35:16.801Z,25.08
2022-09-21T07:37:43.142Z,25.01
2022-09-21T07:40:09.557Z,25.11
2022-09-21T07:42:35.827Z,25.08
2022-09-21T07:45:04.231Z,25.12
2022-09-21T07:47:28.506Z,25.15
2022-09-21T07:49:54.859Z,25.18
2022-09-21T07:52:21.206Z,25.18
2022-09-21T07:54:47.542Z,25.09
2022-09-21T07:57:13.905Z,25.38
2022-09-21T07:59:40.260Z,25.22
2022-09-21T08:02:06.733Z,25.23
2022-09-21T08:04:33.062Z,25.22
2022-09-21T08:06:59.415Z,25.23
2022-09-21T08:09:25.750Z,25.24
2022-09-21T08:11:52.091Z,25.39
2022-09-21T08:14:21.188Z,25.44
2022-09-21T08:16:44.885Z,25.36
2022-09-21T08:19:11.148Z,25.50
2022-09-21T08:21:37.507Z,25.46
2022-09-21T08:24:03.881Z,25.38
2022-09-21T08:26:30.230Z,25.61
2022-09-21T08:28:56.606Z,25.61
2022-09-21T08:31:23.064Z,25.47
2022-09-21T08:33:49.307Z,25.53
2022-09-21T08:36:15.660Z,25.61
2022-09-21T08:38:43.336Z,25.59
2022-09-21T08:41:08.377Z,25.57
2022-09-21T08:43:38.232Z,25.68
2022-09-21T08:46:04.580Z,25.76
2022-09-21T08:48:35.854Z,25.80
2022-09-21T08:50:57.267Z,25.77
2022-09-21T08:53:23.602Z,25.73
2022-09-21T08:55:49.956Z,25.78
2022-09-21T08:58:16.287Z,25.78
2022-09-21T09:00:42.701Z,25.78
2022-09-21T09:03:09.008Z,25.80
2022-09-21T09:05:35.353Z,25.80
2022-09-21T09:08:01.747Z,25.82
2022-09-21T09:10:28.105Z,25.68
2022-09-21T09:12:54.442Z,25.68
2022-09-21T09:15:20.831Z,26.01
2022-09-21T09:17:47.174Z,25.75
2022-09-21T09:20:13.523Z,25.83
2022-09-21T09:22:42.632Z,25.82
2022-09-21T09:25:08.973Z,25.80
2022-09-21T09:27:35.313Z,25.91
2022-09-21T09:30:03.619Z,25.73
2022-09-21T09:32:27.993Z,25.86
2022-09-21T09:34:54.400Z,25.85
2022-09-21T09:37:20.721Z,25.83
2022-09-21T09:39:47.101Z,25.77
2022-09-21T09:42:13.437Z,25.85
2022-09-21T09:44:39.786Z,25.89
2022-09-21T09:47:06.187Z,25.84
2022-09-21T09:49:32.466Z,25.86
2022-09-21T09:51:58.801Z,25.89
2022-09-21T09:54:25.142Z,25.77
2022-09-21T09:56:51.507Z,25.91
2022-09-21T09:59:17.995Z,25.93
2022-09-21T10:01:44.492Z,25.95
2022-09-21T10:04:10.823Z,25.90
2022-09-21T10:06:37.123Z,25.91
2022-09-21T10:09:03.587Z,25.95
2022-09-21T10:11:29.924Z,25.91
2022-09-21T10:13:56.269Z,25.96
2022-09-21T10:16:22.750Z,25.96
2022-09-21T10:18:48.951Z,25.92
2022-09-21T10:21:15.293Z,25.89
2022-09-21T10:23:41.646Z,25.88
2022-09-21T10:26:07.990Z,25.91
2022-09-21T10:28:34.341Z,25.93
2022-09-21T10:31:00.737Z,25.97
2022-09-21T10:33:27.032Z,25.96
2022-09-21T10:35:53.363Z,25.90
2022-09-21T10:38:22.386Z,25.87
2022-09-21T10:40:46.162Z,25.89
2022-09-21T10:43:12.387Z,25.81
2022-09-21T10:45:38.733Z,25.88
2022-09-21T10:48:05.101Z,25.87
2022-09-21T10:50:31.468Z,25.84
2022-09-21T10:52:57.802Z,25.87
2022-09-21T10:55:24.140Z,25.84
2022-09-21T10:57:50.476Z,25.87
2022-09-21T11:00:16.854Z,25.83
2022-09-21T11:02:44.772Z,25.92
2022-09-21T11:05:09.544Z,25.91
2022-09-21T11:07:35.892Z,25.88
2022-09-21T11:10:02.230Z,25.89
2022-09-21T11:12:28.574Z,25.86
2022-09-21T11:14:54.924Z,25.85
2022-09-21T11:17:21.262Z,25.84
2022-09-21T11:19:47.666Z,25.85
2022-09-21T11:22:13.986Z,25.88
2022-09-21T11:24:40.325Z,25.90
2022-09-21T11:27:06.674Z,25.89
2022-09-21T11:29:33.364Z,25.89
2022-09-21T11:32:03.826Z,25.92
2022-09-21T11:34:26.092Z,25.90
2022-09-21T11:36:52.428Z,25.89
2022-09-21T11:39:18.789Z,25.91
2022-09-21T11:41:45.692Z,25.88
2022-09-21T11:44:15.821Z,25.86
2022-09-21T11:46:38.598Z,25.83
2022-09-21T11:49:04.979Z,25.75
2022-09-21T11:51:31.283Z,25.71
2022-09-21T11:53:57.626Z,25.68
2022-09-21T11:56:23.968Z,25.67
2022-09-21T11:58:58.322Z,25.70
2022-09-21T12:01:16.656Z,25.68
2022-09-21T12:03:43.005Z,25.68
2022-09-21T12:06:09.355Z,25.70
2022-09-21T12:08:35.696Z,25.68
2022-09-21T12:11:02.107Z,25.62
2022-09-21T12:13:28.455Z,25.60
2022-09-21T12:15:54.797Z,25.59
2022-09-21T12:18:21.135Z,25.58
2022-09-21T12:20:47.502Z,25.57
2022-09-21T12:23:13.862Z,25.57
2022-09-21T12:25:40.214Z,25.64
2022-09-21T12:28:06.558Z,25.65
2022-09-21T12:30:32.958Z,25.65
2022-09-21T12:32:59.269Z,25.67
2022-09-21T12:35:25.629Z,25.65
2022-09-21T12:37:51.965Z,25.67
2022-09-21T12:40:18.361Z,25.69
2022-09-21T12:42:44.648Z,25.70
2022-09-21T12:45:11.015Z,25.68
2022-09-21T12:47:37.353Z,25.70
2022-09-21T12:50:03.708Z,25.70
2022-09-21T12:52:30.064Z,25.78
2022-09-21T12:54:56.411Z,25.75
2022-09-21T12:57:45.652Z,25.80
2022-09-21T12:59:49.174Z,25.80
2022-09-21T13:02:15.768Z,25.75
2022-09-21T13:04:41.978Z,25.76
2022-09-21T13:07:08.325Z,25.75
2022-09-21T13:09:34.673Z,25.80
2022-09-21T13:12:01.008Z,25.79
2022-09-21T13:14:27.356Z,25.80
2022-09-21T13:16:53.686Z,25.78
2022-09-21T13:19:20.050Z,25.78
2022-09-21T13:21:46.402Z,25.76
2022-09-21T13:24:12.753Z,25.71
2022-09-21T13:26:39.091Z,25.70
2022-09-21T13:29:05.436Z,25.67
2022-09-21T13:31:47.231Z,25.67
2022-09-21T13:33:58.234Z,25.66
2022-09-21T13:36:24.483Z,25.62
2022-09-21T13:38:50.859Z,25.59
2022-09-21T13:41:17.204Z,25.60
2022-09-21T13:43:43.546Z,25.60
2022-09-21T13:46:09.957Z,25.52
2022-09-21T13:48:36.232Z,25.61
2022-09-21T13:51:02.565Z,25.61
2022-09-21T13:53:28.904Z,25.55
2022-09-21T13:55:55.237Z,25.58
2022-09-21T13:58:21.607Z,25.59
2022-09-21T14:00:48.186Z,25.61
2022-09-21T14:03:14.417Z,25.57
2022-09-21T14:05:40.747Z,25.63
2022-09-21T14:08:07.115Z,25.59
2022-09-21T14:10:33.443Z,25.62
2022-09-21T14:12:59.796Z,25.63
2022-09-21T14:15:26.132Z,25.63
2022-09-21T14:17:52.504Z,25.65
2022-09-21T14:20:18.822Z,25.66
2022-09-21T14:22:45.166Z,25.68
2022-09-21T14:25:11.507Z,25.70
2022-09-21T14:27:39.402Z,25.64
2022-09-21T14:30:07.095Z,25.65
2022-09-21T14:32:30.553Z,25.65
2022-09-21T14:34:56.881Z,25.65
2022-09-21T14:37:26.136Z,25.68
2022-09-21T14:39:49.639Z,25.68
2022-09-21T14:42:16.018Z,25.65
2022-09-21T14:44:42.372Z,25.67
2022-09-21T14:47:08.796Z,25.71
2022-09-21T14:49:35.091Z,25.68
2022-09-21T14:52:12.590Z,25.74
2022-09-21T14:54:27.766Z,25.71
2022-09-21T14:56:54.111Z,25.72
2022-09-21T14:59:20.460Z,25.78
2022-09-21T15:01:46.804Z,25.74
2022-09-21T15:04:13.180Z,25.74
2022-09-21T15:06:39.505Z,25.71
2022-09-21T15:09:05.916Z,25.69
2022-09-21T15:11:34.928Z,25.68
2022-09-21T15:14:01.261Z,25.68
2022-09-21T15:16:27.653Z,25.66
2022-09-21T15:18:53.941Z,25.65
2022-09-21T15:21:20.285Z,25.68
2022-09-21T15:23:46.620Z,25.63
2022-09-21T15:26:12.963Z,25.64
2022-09-21T15:29:04.979Z,25.62
2022-09-21T15:31:05.665Z,25.62
2022-09-21T15:33:31.982Z,25.58
2022-09-21T15:35:58.327Z,25.61
2022-09-21T15:38:24.664Z,25.51
2022-09-21T15:40:51.026Z,25.58
2022-09-21T15:43:17.348Z,25.56
2022-09-21T15:45:43.827Z,25.58
2022-09-21T15:48:10.070Z,25.55
2022-09-21T15:50:36.414Z,25.49
2022-09-21T15:53:02.762Z,25.57
2022-09-21T15:55:29.099Z,25.53
2022-09-21T15:57:55.433Z,25.54
2022-09-21T16:00:21.783Z,25.57
2022-09-21T16:02:48.134Z,25.52
2022-09-21T16:05:14.487Z,25.51
2022-09-21T16:07:40.822Z,25.54
2022-09-21T16:10:07.242Z,25.56
2022-09-21T16:12:33.508Z,25.45
2022-09-21T16:15:03.958Z,25.54
2022-09-21T16:17:26.213Z,25.56
2022-09-21T16:19:52.550Z,25.51
2022-09-21T16:22:18.883Z,25.54
2022-09-21T16:24:45.237Z,25.49
2022-09-21T16:27:11.585Z,25.52
2022-09-21T16:29:37.935Z,25.45
2022-09-21T16:32:04.273Z,25.45
2022-09-21T16:34:30.621Z,25.49
2022-09-21T16:36:56.967Z,25.50
2022-09-21T16:39:23.319Z,25.45
2022-09-21T16:41:49.649Z,25.46
2022-09-21T16:44:16.026Z,25.40
2022-09-21T16:46:42.565Z,25.38
2022-09-21T16:49:08.709Z,25.41
2022-09-21T16:51:35.177Z,25.42
2022-09-21T16:54:01.515Z,25.27
2022-09-21T16:56:27.859Z,25.38
2022-09-21T16:58:54.239Z,25.37
2022-09-21T17:01:20.699Z,25.34
2022-09-21T17:03:49.385Z,25.32
2022-09-21T17:06:15.727Z,25.34
2022-09-21T17:08:42.080Z,25.34
2022-09-21T17:11:08.417Z,25.28
2022-09-21T17:13:34.762Z,25.28
2022-09-21T17:16:01.167Z,25.16
2022-09-21T17:18:27.434Z,25.25
2022-09-21T17:20:53.778Z,25.23
2022-09-21T17:23:20.131Z,25.23
2022-09-21T17:25:46.472Z,25.21
2022-09-21T17:28:12.819Z,25.19
2022-09-21T17:30:39.238Z,25.19
2022-09-21T17:33:05.571Z,25.19
2022-09-21T17:35:31.916Z,25.17
2022-09-21T17:37:58.252Z,25.17
2022-09-21T17:40:24.634Z,25.15
2022-09-21T17:42:50.932Z,25.16
2022-09-21T17:45:17.295Z,25.08
2022-09-21T17:47:43.630Z,25.11
2022-09-21T17:50:09.977Z,25.14
2022-09-21T17:52:36.316Z,25.02
2022-09-21T17:55:05.921Z,25.11
2022-09-21T17:57:29.333Z,25.09
2022-09-21T17:59:55.677Z,25.08
2022-09-21T18:02:22.069Z,25.10
2022-09-21T18:04:48.383Z,25.01
2022-09-21T18:07:14.734Z,25.09
2022-09-21T18:09:41.070Z,25.08
2022-09-21T18:12:07.433Z,25.02
2022-09-21T18:14:33.814Z,25.07
2022-09-21T18:17:00.156Z,25.08
2022-09-21T18:19:26.512Z,25.07
2022-09-21T18:21:52.842Z,24.99
2022-09-21T18:24:19.208Z,25.05
2022-09-21T18:26:45.545Z,24.97
2022-09-21T18:29:35.437Z,25.03
2022-09-21T18:31:38.330Z,25.01
2022-09-21T18:34:04.626Z,25.00
2022-09-21T18:36:30.958Z,25.01
2022-09-21T18:38:57.303Z,24.99
2022-09-21T18:41:23.700Z,25.01
2022-09-21T18:43:50.054Z,24.96
2022-09-21T18:46:16.455Z,24.96
2022-09-21T18:48:46.119Z,24.96
2022-09-21T18:51:09.215Z,24.96
2022-09-21T18:53:35.557Z,24.97
2022-09-21T18:56:01.892Z,24.97
2022-09-21T18:58:28.265Z,24.95
2022-09-21T19:00:54.610Z,24.96
2022-09-21T19:03:21.116Z,24.95
2022-09-21T19:05:48.421Z,24.94
2022-09-21T19:08:13.729Z,24.93
2022-09-21T19:10:40.075Z,24.94
2022-09-21T19:13:06.408Z,24.85
2022-09-21T19:15:58.514Z,24.91
2022-09-21T19:17:59.110Z,24.84
2022-09-21T19:20:25.456Z,24.90
2022-09-21T19:22:51.797Z,24.90
2022-09-21T19:25:18.126Z,24.90
2022-09-21T19:27:44.472Z,24.88
2022-09-21T19:30:10.854Z,24.70
2022-09-21T19:32:37.208Z,24.70
2022-09-21T19:35:03.549Z,24.89
2022-09-21T19:37:29.885Z,24.87
2022-09-21T19:39:56.253Z,24.86
2022-09-21T19:42:25.443Z,24.87
2022-09-21T19:44:48.926Z,24.73
2022-09-21T19:47:15.272Z,24.85
2022-09-21T19:49:41.616Z,24.73
2022-09-21T19:52:07.972Z,24.70
2022-09-21T19:54:34.313Z,24.74
2022-09-21T19:57:00.651Z,24.83
2022-09-21T19:59:26.995Z,24.82
2022-09-21T20:01:53.362Z,24.73
2022-09-21T20:04:19.682Z,24.73
2022-09-21T20:06:46.029Z,24.79
2022-09-21T20:09:12.371Z,24.81
2022-09-21T20:11:38.717Z,24.74
2022-09-21T20:14:05.050Z,24.79
2022-09-21T20:16:31.424Z,24.71
2022-09-21T20:18:57.732Z,24.71
2022-09-21T20:21:24.076Z,24.81
2022-09-21T20:23:52.276Z,24.77
2022-09-21T20:26:16.752Z,24.76
2022-09-21T20:28:43.092Z,24.69
2022-09-21T20:31:09.500Z,24.76
2022-09-21T20:33:35.769Z,24.75
2022-09-21T20:36:02.113Z,24.59
2022-09-21T20:38:28.461Z,24.73
2022-09-21T20:40:54.827Z,24.73
2022-09-21T20:43:21.161Z,24.74
2022-09-21T20:45:47.541Z,24.71
2022-09-21T20:48:13.859Z,24.65
2022-09-21T20:50:40.198Z,24.65
2022-09-21T20:53:06.575Z,24.56
2022-09-21T20:55:32.939Z,24.70
2022-09-21T20:57:59.256Z,24.69
2022-09-21T21:00:25.601Z,24.67
2022-09-21T21:02:51.940Z,24.68
2022-09-21T21:05:18.285Z,24.59
2022-09-21T21:07:44.617Z,24.63
2022-09-21T21:10:10.972Z,24.67
2022-09-21T21:12:37.321Z,24.59
2022-09-21T21:15:03.665Z,24.59
2022-09-21T21:17:29.996Z,24.64
2022-09-21T21:19:56.386Z,24.65
2022-09-21T21:22:22.730Z,24.66
2022-09-21T21:24:49.085Z,24.64
2022-09-21T21:27:15.421Z,24.57
2022-09-21T21:29:41.762Z,24.57
2022-09-21T21:32:08.161Z,24.65
2022-09-21T21:34:34.489Z,24.62
2022-09-21T21:37:00.835Z,24.62
2022-09-21T21:39:27.173Z,24.62
2022-09-21T21:41:53.518Z,24.62
2022-09-21T21:44:19.874Z,24.62
2022-09-21T21:46:46.221Z,24.44
2022-09-21T21:49:12.557Z,24.58
2022-09-21T21:51:38.895Z,24.51
2022-09-21T21:54:05.365Z,24.59
2022-09-21T21:56:31.587Z,24.53
2022-09-21T21:58:57.930Z,24.54
2022-09-21T22:01:24.288Z,24.58
2022-09-21T22:03:50.617Z,24.57
2022-09-21T22:06:16.956Z,24.50
2022-09-21T22:08:43.302Z,24.57
2022-09-21T22:11:11.729Z,24.56
2022-09-21T22:13:35.984Z,24.53
2022-09-21T22:16:02.394Z,24.54
2022-09-21T22:18:28.664Z,24.39
2022-09-21T22:20:55.005Z,24.52
2022-09-21T22:23:21.344Z,24.51
2022-09-21T22:25:47.680Z,24.37
2022-09-21T22:28:14.052Z,24.37
2022-09-21T22:30:40.390Z,24.42
2022-09-21T22:33:06.737Z,24.42
2022-09-21T22:35:33.064Z,24.42
2022-09-21T22:38:00.755Z,24.50
2022-09-21T22:40:25.807Z,24.48
2022-09-21T22:42:52.093Z,24.49
2022-09-21T22:45:18.421Z,24.49
2022-09-21T22:47:44.766Z,24.49
2022-09-21T22:50:11.122Z,24.43
2022-09-21T22:52:37.503Z,24.47
2022-09-21T22:55:03.842Z,24.47
2022-09-21T22:57:30.228Z,24.46
2022-09-21T22:59:56.561Z,24.46
2022-09-21T23:04:58.225Z,24.46
2022-09-21T23:07:24.612Z,24.44
2022-09-21T23:09:51.046Z,24.43
2022-09-21T23:12:17.435Z,24.36
2022-09-21T23:14:43.824Z,24.36
2022-09-21T23:17:10.281Z,24.43
2022-09-21T23:19:36.677Z,24.42
2022-09-21T23:22:03.069Z,24.42
2022-09-21T23:24:29.415Z,24.41
2022-09-21T23:26:55.842Z,24.41
2022-09-21T23:29:22.254Z,24.34
2022-09-21T23:31:48.629Z,24.41
2022-09-21T23:34:14.923Z,24.41
2022-09-21T23:36:41.256Z,24.41
2022-09-21T23:39:07.609Z,24.33
2022-09-21T23:41:33.945Z,24.33
2022-09-21T23:44:00.295Z,24.40
2022-09-21T23:46:26.732Z,24.39
2022-09-21T23:48:53.050Z,24.39
2022-09-21T23:51:19.391Z,24.38
2022-09-21T23:53:45.756Z,24.38
2022-09-21T23:56:12.125Z,24.38
2022-09-21T23:58:38.474Z,24.37
